Time;durP1;ratioP1;P1;durP2;ratioP2;P2;SDS_P1;SDS_P2;PMS_P1;PMS_P2;Temp;Humidity;BMP_temperature;BMP_pressure;BME280_temperature;BME280_humidity;BME280_pressure;Samples;Min_cycle;Max_cycle;Signal;HPM_P1;HPM_P2
2023/06/10 00:01:41;;;;;;;10.50;6.43;;;;;;;-146.27;52.32;80478.28;5031814;28;20104;-68
2023/06/10 00:04:07;;;;;;;11.82;5.68;;;;;;;-146.27;52.09;80502.38;5042231;28;20112;-67
2023/06/10 00:06:39;;;;;;;8.52;5.60;;;;;;;-146.27;52.97;80538.53;5029091;28;20470;-68
2023/06/10 00:09:05;;;;;;;10.35;5.40;;;;;;;-146.27;52.50;80528.47;5031774;28;20056;-67
2023/06/10 00:11:32;;;;;;;9.90;5.57;;;;;;;-146.27;51.26;80464.22;5029323;28;20389;-67
2023/06/10 00:13:57;;;;;;;9.40;6.13;;;;;;;-146.27;51.52;80518.44;5031005;28;20021;-69
2023/06/10 00:16:23;;;;;;;11.68;5.93;;;;;;;-146.27;51.10;80504.38;5031222;28;20024;-67
2023/06/10 00:18:51;;;;;;;7.70;5.40;;;;;;;-146.27;51.84;80536.50;5030636;28;20099;-67
2023/06/10 00:21:16;;;;;;;8.77;5.57;;;;;;;-146.27;50.50;80504.38;5030384;28;20520;-69
2023/06/10 00:23:42;;;;;;;15.05;6.03;;;;;;;-146.27;50.67;80504.38;5029611;28;20028;-69
2023/06/10 00:26:07;;;;;;;12.25;6.07;;;;;;;-146.27;51.46;80512.41;5030682;28;20018;-68
2023/06/10 00:28:33;;;;;;;7.32;5.63;;;;;;;-146.27;50.85;80588.72;5031894;28;20053;-67
2023/06/10 00:30:58;;;;;;;8.68;5.53;;;;;;;-146.27;50.56;80552.56;5031611;28;20366;-68
2023/06/10 00:33:24;;;;;;;11.02;6.03;;;;;;;-146.27;50.68;80556.59;5045624;28;20457;-67
2023/06/10 00:35:49;;;;;;;8.82;5.90;;;;;;;-146.27;50.59;80586.72;5031392;28;20025;-68
2023/06/10 00:38:15;;;;;;;11.40;5.60;;;;;;;-146.27;50.82;80596.75;5032945;28;20397;-68
2023/06/10 00:40:41;;;;;;;9.27;5.47;;;;;;;-146.27;50.12;80608.78;5031091;28;20445;-67
2023/06/10 00:43:07;;;;;;;8.05;5.60;;;;;;;-146.27;50.74;80636.91;5032125;28;20526;-68
2023/06/10 00:45:32;;;;;;;10.25;5.20;;;;;;;-146.27;50.88;80673.06;5031670;28;20018;-69
2023/06/10 00:47:59;;;;;;;7.85;5.18;;;;;;;-146.27;50.99;80665.03;5029639;28;20409;-69
2023/06/10 00:50:25;;;;;;;11.27;4.60;;;;;;;-146.27;51.32;80699.16;5031799;28;20596;-69
2023/06/10 00:52:53;;;;;;;7.15;5.25;;;;;;;-146.27;50.93;80709.19;5030749;28;20108;-69
2023/06/10 00:55:19;;;;;;;10.48;4.80;;;;;;;-146.27;51.03;80681.09;5031771;28;20025;-68
2023/06/10 00:57:48;;;;;;;12.30;5.30;;;;;;;-146.27;51.52;80709.19;5029694;28;20017;-69
2023/06/10 01:00:15;;;;;;;11.25;4.93;;;;;;;-146.27;51.31;80767.44;5028918;28;20526;-69
2023/06/10 01:02:41;;;;;;;9.77;5.20;;;;;;;-146.27;50.42;80757.38;5028617;28;20033;-68
2023/06/10 01:05:08;;;;;;;8.25;4.82;;;;;;;-146.27;51.08;80769.44;5029134;28;20018;-69
2023/06/10 01:07:48;;;;;;;5.07;4.57;;;;;;;-146.27;51.15;80737.31;5031019;28;20022;-68
2023/06/10 01:10:33;;;;;;;8.45;4.78;;;;;;;-146.27;51.11;80727.28;5030765;28;20080;-69
2023/06/10 01:13:03;;;;;;;7.35;4.85;;;;;;;-146.27;50.09;80755.38;5025676;28;20068;-70
2023/06/10 01:15:30;;;;;;;8.63;4.72;;;;;;;-146.27;51.24;80713.22;5029961;28;20029;-69
2023/06/10 01:17:58;;;;;;;10.00;4.65;;;;;;;-146.27;50.80;80737.31;5030226;28;20026;-69
2023/06/10 01:20:27;;;;;;;8.77;4.78;;;;;;;-146.27;50.79;80773.44;5030139;28;20061;-69
2023/06/10 01:22:57;;;;;;;9.30;4.57;;;;;;;-146.27;50.63;80787.50;5024697;28;20385;-69
2023/06/10 01:25:27;;;;;;;6.57;4.70;;;;;;;-146.27;50.98;80797.53;5048659;28;20021;-69
2023/06/10 01:28:06;;;;;;;7.43;4.93;;;;;;;-146.27;50.54;80803.56;5029073;28;20159;-69
2023/06/10 01:30:39;;;;;;;12.45;4.72;;;;;;;-146.27;50.62;80825.66;5028333;28;20041;-69
2023/06/10 01:33:08;;;;;;;8.20;4.63;;;;;;;-146.27;50.45;80809.59;5027714;28;20025;-69
2023/06/10 01:35:37;;;;;;;11.63;5.15;;;;;;;-146.27;50.79;80833.69;5027996;28;20385;-68
2023/06/10 01:38:03;;;;;;;9.80;4.53;;;;;;;-146.27;50.61;80881.88;5025385;28;20017;-69
2023/06/10 01:40:29;;;;;;;13.05;4.38;;;;;;;-146.27;51.29;80861.81;5032956;28;20405;-68
2023/06/10 01:42:55;;;;;;;7.30;4.53;;;;;;;-146.27;50.36;80863.81;5029261;28;20021;-69
2023/06/10 01:45:20;;;;;;;8.65;4.78;;;;;;;-146.27;50.85;80936.09;5031198;28;20108;-68
2023/06/10 01:47:46;;;;;;;9.93;4.63;;;;;;;-146.27;50.50;80893.94;5030735;28;20021;-68
2023/06/10 01:50:11;;;;;;;6.30;4.53;;;;;;;-146.27;50.31;80877.88;5029397;28;20448;-68
2023/06/10 01:52:37;;;;;;;7.38;4.25;;;;;;;-146.27;50.62;80912.00;5030572;28;20075;-68
2023/06/10 01:55:03;;;;;;;9.93;4.82;;;;;;;-146.27;50.22;80926.06;5034935;28;20037;-69
2023/06/10 01:57:28;;;;;;;8.55;4.78;;;;;;;-146.27;50.44;80934.09;5050544;28;20028;-69
2023/06/10 01:59:54;;;;;;;9.45;4.68;;;;;;;-146.27;49.84;80952.16;5050605;28;20025;-69
2023/06/10 02:02:21;;;;;;;6.78;4.40;;;;;;;-146.27;50.43;80922.03;5049143;28;20041;-68
2023/06/10 02:04:47;;;;;;;13.00;4.30;;;;;;;-146.27;50.57;80948.16;5045518;28;20096;-68
2023/06/10 02:07:12;;;;;;;8.32;4.93;;;;;;;-146.27;50.76;81000.34;5028492;28;20430;-69
2023/06/10 02:09:37;;;;;;;9.40;4.70;;;;;;;-146.27;49.84;80952.16;5028979;28;20042;-68
2023/06/10 02:12:03;;;;;;;6.03;4.45;;;;;;;-146.27;49.69;80966.22;5030848;28;20021;-68
2023/06/10 02:14:29;;;;;;;8.60;4.63;;;;;;;-146.27;49.75;81006.38;5031089;28;20101;-69
2023/06/10 02:16:56;;;;;;;10.60;4.72;;;;;;;-146.27;49.04;81000.34;5031089;28;20021;-69
2023/06/10 02:19:22;;;;;;;9.10;4.05;;;;;;;-146.27;48.71;80950.16;5029970;28;20075;-69
2023/06/10 02:21:47;;;;;;;10.98;4.43;;;;;;;-146.27;48.53;80986.31;5030283;28;20033;-68
2023/06/10 02:24:13;;;;;;;8.55;4.50;;;;;;;-146.27;48.95;81010.41;5029913;28;20027;-68
2023/06/10 02:26:38;;;;;;;8.55;4.63;;;;;;;-146.27;48.20;80990.31;5030563;28;20017;-69
2023/06/10 02:29:04;;;;;;;7.10;4.10;;;;;;;-146.27;47.25;81018.44;5030492;28;20695;-69
2023/06/10 02:31:29;;;;;;;7.85;4.40;;;;;;;-146.27;47.47;80974.25;5030578;28;20029;-68
2023/06/10 02:33:55;;;;;;;8.25;4.18;;;;;;;-146.27;47.38;80966.22;5029732;28;20030;-68
2023/06/10 02:36:21;;;;;;;9.73;4.15;;;;;;;-146.27;47.19;81000.34;5029028;28;20188;-68
2023/06/10 02:38:47;;;;;;;8.15;4.43;;;;;;;-146.27;47.20;80982.28;5029613;28;20112;-69
2023/06/10 02:41:12;;;;;;;10.30;4.28;;;;;;;-146.27;47.21;81050.56;5030714;28;20469;-69
2023/06/10 02:43:37;;;;;;;8.02;4.18;;;;;;;-146.27;47.63;81052.56;5030315;28;20033;-69
2023/06/10 02:46:03;;;;;;;9.40;4.32;;;;;;;-146.27;47.69;81074.66;5030024;28;20017;-70
2023/06/10 02:48:28;;;;;;;9.20;4.60;;;;;;;-146.27;47.23;81062.59;5030867;28;20025;-69
2023/06/10 02:50:55;;;;;;;10.18;4.50;;;;;;;-146.27;47.32;81110.81;5030520;28;20065;-69
2023/06/10 02:53:21;;;;;;;10.13;4.60;;;;;;;-146.27;47.32;81026.47;5030804;28;20036;-69
2023/06/10 02:55:46;;;;;;;7.28;4.30;;;;;;;-146.27;47.17;81062.59;5030890;28;20089;-69
2023/06/10 02:58:12;;;;;;;7.50;4.78;;;;;;;-146.27;47.53;81074.66;5030889;28;20021;-69
2023/06/10 03:00:40;;;;;;;8.57;4.70;;;;;;;-146.27;48.05;81120.84;5030666;28;20528;-68
2023/06/10 03:03:05;;;;;;;8.20;4.05;;;;;;;-146.27;47.64;81114.81;5029236;28;20075;-69
2023/06/10 03:05:31;;;;;;;8.05;4.30;;;;;;;-146.27;47.55;81110.81;5027209;28;20605;-68
2023/06/10 03:07:56;;;;;;;8.63;4.60;;;;;;;-146.27;47.56;81106.78;5011233;28;20129;-69
2023/06/10 03:10:21;;;;;;;10.70;4.63;;;;;;;-146.27;47.23;81084.69;5015561;28;20116;-69
2023/06/10 03:12:47;;;;;;;10.98;5.00;;;;;;;-146.27;48.13;81104.78;5030260;28;20087;-69
2023/06/10 03:15:13;;;;;;;11.30;5.50;;;;;;;-146.27;47.54;81136.91;5029442;28;20056;-68
2023/06/10 03:17:38;;;;;;;9.15;5.30;;;;;;;-146.27;48.00;81179.09;5026613;28;20040;-69
2023/06/10 03:20:09;;;;;;;10.70;4.57;;;;;;;-146.27;48.38;81124.88;5012477;28;20025;-69
2023/06/10 03:22:35;;;;;;;10.65;5.10;;;;;;;-146.27;48.13;81187.13;5025370;28;20030;-69
2023/06/10 03:25:01;;;;;;;10.68;4.35;;;;;;;-146.27;49.44;81219.25;5030420;28;20537;-70
2023/06/10 03:27:26;;;;;;;5.75;4.25;;;;;;;-146.27;48.35;81171.06;5031472;28;20103;-69
2023/06/10 03:29:52;;;;;;;8.98;4.18;;;;;;;-146.27;48.04;81189.13;5032679;28;20028;-69
2023/06/10 03:32:17;;;;;;;8.23;4.20;;;;;;;-146.27;48.75;81187.13;5032722;28;20137;-68
2023/06/10 03:34:44;;;;;;;6.88;4.22;;;;;;;-146.27;48.84;81157.00;5032583;28;20044;-68
2023/06/10 03:37:10;;;;;;;7.80;4.60;;;;;;;-146.27;48.42;81179.09;5032062;28;20033;-68
2023/06/10 03:39:35;;;;;;;9.25;4.15;;;;;;;-146.27;49.34;81235.31;5023417;28;20057;-68
2023/06/10 03:42:01;;;;;;;7.50;4.25;;;;;;;-146.27;49.18;81253.38;5024467;28;20059;-68
2023/06/10 03:44:27;;;;;;;9.48;4.30;;;;;;;-146.27;49.19;81325.69;5032183;28;20029;-68
2023/06/10 03:46:54;;;;;;;11.15;4.57;;;;;;;-146.27;48.84;81247.38;5032135;28;20446;-68
2023/06/10 03:49:19;;;;;;;8.50;4.22;;;;;;;-146.27;48.70;81243.34;5032104;28;20488;-69
2023/06/10 03:51:45;;;;;;;7.25;4.55;;;;;;;-146.27;50.17;81243.34;5029457;28;20112;-69
2023/06/10 03:54:10;;;;;;;9.40;4.90;;;;;;;-146.27;49.58;81277.50;5030711;28;20032;-68
2023/06/10 03:56:36;;;;;;;9.35;4.70;;;;;;;-146.27;49.86;81269.47;5032043;28;20035;-68
2023/06/10 03:59:01;;;;;;;11.02;4.72;;;;;;;-146.27;49.47;81265.44;5031869;28;20029;-69
2023/06/10 04:01:27;;;;;;;11.65;4.82;;;;;;;-146.27;50.58;81235.31;5032225;28;20057;-69
2023/06/10 04:03:54;;;;;;;7.72;4.50;;;;;;;-146.27;49.63;81283.50;5032907;28;20021;-69
2023/06/10 04:06:19;;;;;;;9.95;4.55;;;;;;;-146.27;49.83;81223.25;5029956;28;20378;-69
2023/06/10 04:08:45;;;;;;;10.98;4.50;;;;;;;-146.27;49.66;81255.41;5032282;28;20044;-68
2023/06/10 04:11:10;;;;;;;9.55;4.60;;;;;;;-146.27;50.80;81223.25;5031711;28;20041;-68
2023/06/10 04:13:36;;;;;;;6.90;4.57;;;;;;;-146.27;50.93;81269.47;5031767;28;20036;-68
2023/06/10 04:16:02;;;;;;;7.78;4.70;;;;;;;-146.27;50.51;81259.41;5031182;28;20496;-70
2023/06/10 04:18:28;;;;;;;11.35;4.93;;;;;;;-146.27;50.55;81261.44;5033094;28;20656;-68
2023/06/10 04:20:53;;;;;;;5.68;4.05;;;;;;;-146.27;51.45;81263.44;5031825;28;20029;-67
2023/06/10 04:23:26;;;;;;;11.15;5.45;;;;;;;-146.27;51.56;81259.41;5033153;28;20029;-67
2023/06/10 04:25:51;;;;;;;7.37;4.70;;;;;;;-146.27;51.20;81251.38;5021547;28;20084;-69
2023/06/10 04:28:16;;;;;;;6.55;4.43;;;;;;;-146.27;52.11;81243.34;5025931;28;20433;-68
2023/06/10 04:30:42;;;;;;;6.95;4.60;;;;;;;-146.27;51.91;81253.38;5032301;28;20029;-68
2023/06/10 04:33:09;;;;;;;8.25;4.40;;;;;;;-146.27;51.89;81239.34;5028744;28;20028;-68
2023/06/10 04:35:34;;;;;;;7.00;4.95;;;;;;;-146.27;51.88;81271.47;5030657;28;20079;-68
2023/06/10 04:37:59;;;;;;;8.57;4.70;;;;;;;-146.27;51.43;81237.31;5031915;28;20037;-68
2023/06/10 04:40:25;;;;;;;10.48;5.28;;;;;;;-146.27;52.53;81261.44;5030832;28;20026;-68
2023/06/10 04:42:50;;;;;;;9.65;4.80;;;;;;;-146.27;52.84;81267.44;5028442;28;20059;-68
2023/06/10 04:45:16;;;;;;;11.10;5.45;;;;;;;-146.27;53.99;81241.34;5026707;28;20049;-68
2023/06/10 04:47:41;;;;;;;8.45;4.63;;;;;;;-146.27;52.85;81275.47;5021222;28;20025;-68
2023/06/10 04:50:07;;;;;;;9.82;4.80;;;;;;;-146.27;52.79;81239.34;5030478;28;20027;-68
2023/06/10 04:52:33;;;;;;;13.13;5.15;;;;;;;-146.27;52.98;81271.47;5029260;28;20109;-70
2023/06/10 04:54:58;;;;;;;8.18;4.75;;;;;;;-146.27;54.16;81215.22;5031282;28;20030;-69
2023/06/10 04:57:24;;;;;;;9.57;4.65;;;;;;;-146.27;53.32;81239.34;5029086;28;20037;-69
2023/06/10 04:59:49;;;;;;;8.10;4.80;;;;;;;-146.27;54.88;81197.16;5032294;28;20040;-68
2023/06/10 05:02:15;;;;;;;6.97;4.53;;;;;;;-146.27;53.71;81183.09;5031432;28;20032;-69
2023/06/10 05:04:40;;;;;;;9.90;4.85;;;;;;;-146.27;53.74;81189.13;5030479;28;20485;-68
2023/06/10 05:07:05;;;;;;;8.38;4.63;;;;;;;-146.27;54.59;81201.19;5029423;28;20027;-68
2023/06/10 05:09:31;;;;;;;11.45;4.70;;;;;;;-146.27;53.55;81199.16;5030237;28;20041;-68
2023/06/10 05:11:56;;;;;;;14.98;5.15;;;;;;;-146.27;54.25;81175.06;5027071;28;20033;-69
2023/06/10 05:14:22;;;;;;;9.05;4.30;;;;;;;-146.27;55.93;81161.00;5030148;28;20108;-71
2023/06/10 05:16:48;;;;;;;10.73;4.75;;;;;;;-146.27;53.38;81128.88;5025013;28;20545;-70
2023/06/10 05:19:13;;;;;;;9.50;4.88;;;;;;;-146.27;53.82;81142.94;5029700;28;20052;-70
2023/06/10 05:21:39;;;;;;;10.43;4.85;;;;;;;-146.27;54.56;81189.13;5028534;28;20029;-70
2023/06/10 05:24:04;;;;;;;10.98;4.65;;;;;;;-146.27;53.72;81169.03;5029980;28;20064;-71
2023/06/10 05:26:31;;;;;;;9.73;4.57;;;;;;;-146.27;53.83;81159.00;5029025;28;20047;-70
2023/06/10 05:28:57;;;;;;;8.63;4.93;;;;;;;-146.27;53.40;81138.91;5030504;28;20034;-70
2023/06/10 05:31:22;;;;;;;11.82;5.15;;;;;;;-146.27;54.85;81179.09;5030050;28;20393;-70
2023/06/10 05:33:47;;;;;;;7.50;4.57;;;;;;;-146.27;54.18;81150.97;5029400;28;20041;-70
2023/06/10 05:36:13;;;;;;;6.47;4.63;;;;;;;-146.27;54.42;81118.84;5030558;28;20025;-70
2023/06/10 05:38:38;;;;;;;9.85;5.28;;;;;;;-146.27;54.48;81076.66;5031085;28;20033;-70
2023/06/10 05:41:04;;;;;;;10.32;4.60;;;;;;;-146.27;55.05;81046.53;5029362;28;20756;-70
2023/06/10 05:43:29;;;;;;;10.10;5.00;;;;;;;-146.27;53.90;81050.56;5028532;28;20032;-70
2023/06/10 05:45:55;;;;;;;8.05;4.70;;;;;;;-146.27;53.93;80986.31;5030569;28;20017;-70
2023/06/10 05:48:20;;;;;;;11.35;5.63;;;;;;;-146.27;53.96;81024.47;5030484;28;20014;-70
2023/06/10 05:50:48;;;;;;;10.18;4.60;;;;;;;-146.27;53.20;80952.16;5029628;28;20071;-69
2023/06/10 05:53:16;;;;;;;12.43;5.35;;;;;;;-146.27;53.90;80994.34;5030169;28;20466;-70
2023/06/10 05:55:45;;;;;;;9.43;5.10;;;;;;;-146.27;53.38;80992.31;5028800;28;20021;-69
2023/06/10 05:58:13;;;;;;;7.10;4.90;;;;;;;-146.27;55.11;80974.25;5041151;28;20032;-70
2023/06/10 06:00:39;;;;;;;12.65;5.70;;;;;;;-146.27;55.27;80962.22;5048578;28;20116;-69
2023/06/10 06:03:07;;;;;;;9.45;4.65;;;;;;;-146.27;55.50;80926.06;5050336;28;20115;-70
2023/06/10 06:05:34;;;;;;;14.82;5.35;;;;;;;-146.27;53.82;80946.13;5050471;28;20024;-69
2023/06/10 06:08:10;;;;;;;15.32;5.68;;;;;;;-146.27;53.95;80887.91;5050598;28;20037;-69
2023/06/10 06:10:36;;;;;;;7.25;5.18;;;;;;;-146.27;53.69;80926.06;5050331;28;20061;-69
2023/06/10 06:13:01;;;;;;;10.23;5.32;;;;;;;-146.27;53.75;80926.06;5029833;28;20037;-69
2023/06/10 06:15:27;;;;;;;13.23;4.65;;;;;;;-146.27;53.20;80897.94;5028458;28;20041;-70
2023/06/10 06:17:53;;;;;;;9.10;5.03;;;;;;;-146.27;53.99;80839.72;5030229;28;20041;-69
2023/06/10 06:20:19;;;;;;;13.50;5.03;;;;;;;-146.27;52.94;80849.75;5029655;28;20021;-70
2023/06/10 06:22:45;;;;;;;17.35;5.20;;;;;;;-146.27;54.13;80845.75;5028893;28;20303;-70
2023/06/10 06:25:10;;;;;;;11.80;5.22;;;;;;;-146.27;52.94;80815.63;5013613;28;20079;-69
2023/06/10 06:27:36;;;;;;;9.13;4.97;;;;;;;-146.27;54.92;80801.56;5021059;28;20509;-69
2023/06/10 06:30:01;;;;;;;8.60;4.72;;;;;;;-146.27;54.05;80779.47;5021518;28;20456;-70
2023/06/10 06:32:27;;;;;;;11.98;5.15;;;;;;;-146.27;55.04;80753.38;5029098;28;20061;-70
2023/06/10 06:34:54;;;;;;;10.43;5.15;;;;;;;-146.27;53.23;80703.16;5029174;28;20036;-69
2023/06/10 06:37:23;;;;;;;12.65;5.10;;;;;;;-146.27;53.63;80789.50;5027548;28;20111;-69
2023/06/10 06:39:50;;;;;;;11.10;4.53;;;;;;;-146.27;53.94;80646.94;5018956;28;20401;-70
2023/06/10 06:42:16;;;;;;;12.80;4.85;;;;;;;-146.27;54.80;80636.91;5022659;28;20037;-70
2023/06/10 06:44:41;;;;;;;8.95;5.03;;;;;;;-146.27;55.00;80652.97;5025644;28;20099;-71
2023/06/10 06:47:07;;;;;;;10.85;4.97;;;;;;;-146.27;54.06;80604.78;5024010;28;20026;-71
2023/06/10 06:49:32;;;;;;;9.80;4.82;;;;;;;-146.27;54.59;80586.72;5029247;28;20021;-71
2023/06/10 06:51:57;;;;;;;7.25;4.70;;;;;;;-146.27;55.35;80590.72;5036747;28;20021;-71
2023/06/10 06:54:23;;;;;;;11.00;4.70;;;;;;;-146.27;52.97;80548.56;5024722;28;20025;-71
2023/06/10 06:56:48;;;;;;;13.65;5.20;;;;;;;-146.27;52.92;80528.47;5025015;28;20060;-71
2023/06/10 06:59:13;;;;;;;8.52;5.55;;;;;;;-146.27;53.13;80468.25;5016454;28;20017;-71
2023/06/10 07:01:39;;;;;;;11.38;5.22;;;;;;;-146.27;52.99;80452.19;5026267;28;20075;-71
2023/06/10 07:04:04;;;;;;;11.75;5.53;;;;;;;-146.27;51.96;80440.13;5031230;28;20159;-69
2023/06/10 07:06:30;;;;;;;17.77;5.65;;;;;;;-146.27;52.12;80422.06;5030659;28;20053;-69
2023/06/10 07:08:55;;;;;;;8.32;5.30;;;;;;;-146.27;52.36;80399.97;5034937;28;20028;-71
2023/06/10 07:11:21;;;;;;;8.15;4.45;;;;;;;-146.27;52.28;80323.69;5028976;28;20469;-70
2023/06/10 07:13:47;;;;;;;8.45;4.82;;;;;;;-146.27;52.73;80345.78;5030430;28;20084;-71
2023/06/10 07:16:12;;;;;;;10.30;4.97;;;;;;;-146.27;51.42;80331.72;5027612;28;20021;-71
2023/06/10 07:18:39;;;;;;;10.43;5.07;;;;;;;-146.27;51.11;80295.56;5029980;28;20025;-71
2023/06/10 07:21:04;;;;;;;11.65;4.80;;;;;;;-146.27;49.94;80229.31;5029193;28;20017;-71
2023/06/10 07:23:30;;;;;;;12.20;5.13;;;;;;;-146.27;50.96;80191.16;5029120;28;20531;-71
2023/06/10 07:25:55;;;;;;;8.88;4.65;;;;;;;-146.27;50.45;80134.97;5029784;28;20030;-71
2023/06/10 07:28:20;;;;;;;6.63;4.55;;;;;;;-146.27;50.86;80130.94;5025715;28;20028;-71
2023/06/10 07:30:46;;;;;;;9.48;5.00;;;;;;;-146.27;50.90;80102.84;5032975;28;20506;-71
2023/06/10 07:33:13;;;;;;;11.10;4.97;;;;;;;-146.27;48.18;80136.97;5030581;28;20040;-70
2023/06/10 07:35:38;;;;;;;7.35;4.65;;;;;;;-146.27;50.37;80086.78;5030248;28;20017;-70
2023/06/10 07:38:03;;;;;;;8.55;4.85;;;;;;;-146.27;49.01;80126.94;5031306;28;20128;-71
2023/06/10 07:40:28;;;;;;;10.88;4.88;;;;;;;-146.27;48.13;79978.38;5030349;28;20415;-69
2023/06/10 07:42:55;;;;;;;11.00;5.45;;;;;;;-146.27;48.17;79978.38;5027961;28;20580;-72
2023/06/10 07:45:20;;;;;;;10.77;4.63;;;;;;;-146.27;49.26;79988.41;5029730;28;20017;-70
2023/06/10 07:47:46;;;;;;;8.80;4.60;;;;;;;-146.27;47.68;79871.97;5026259;28;20029;-71
2023/06/10 07:50:11;;;;;;;9.85;4.65;;;;;;;-146.27;48.30;79865.94;5031596;28;20026;-72
2023/06/10 07:52:36;;;;;;;7.70;4.80;;;;;;;-146.27;47.88;79837.84;5030106;28;20218;-72
2023/06/10 07:55:02;;;;;;;8.75;4.90;;;;;;;-146.27;47.23;79765.56;5031379;28;20055;-71
2023/06/10 07:57:27;;;;;;;7.47;4.65;;;;;;;-146.27;47.51;79753.53;5031276;28;20079;-70
2023/06/10 07:59:54;;;;;;;8.73;4.22;;;;;;;-146.27;48.22;79739.47;5029330;28;20029;-70
2023/06/10 08:02:20;;;;;;;17.08;4.78;;;;;;;-146.27;48.28;79753.53;5029733;28;20033;-71
2023/06/10 08:04:45;;;;;;;9.38;4.72;;;;;;;-146.27;46.89;79703.31;5030243;28;20372;-70
2023/06/10 08:07:10;;;;;;;9.40;4.65;;;;;;;-146.27;48.42;79685.25;5030511;28;20405;-71
2023/06/10 08:09:36;;;;;;;8.20;4.97;;;;;;;-146.27;46.10;79689.28;5039164;28;20045;-71
2023/06/10 08:12:02;;;;;;;10.38;5.05;;;;;;;-146.27;47.45;79590.91;5033935;28;20028;-71
2023/06/10 08:14:27;;;;;;;8.43;4.95;;;;;;;-146.27;46.10;79556.78;5038927;28;20418;-72
2023/06/10 08:16:52;;;;;;;9.30;5.57;;;;;;;-146.27;45.52;79534.72;5033682;28;20029;-71
2023/06/10 08:19:18;;;;;;;13.15;5.03;;;;;;;-146.27;45.41;79462.44;5031647;28;20032;-72
2023/06/10 08:21:43;;;;;;;15.40;5.00;;;;;;;-146.27;46.16;79434.34;5037359;28;20129;-72
2023/06/10 08:24:09;;;;;;;8.38;4.90;;;;;;;-146.27;47.10;79430.31;5046061;28;20136;-72
2023/06/10 08:26:35;;;;;;;10.75;5.20;;;;;;;-146.27;47.64;79356.06;5034038;28;20029;-73
2023/06/10 08:29:00;;;;;;;6.78;4.70;;;;;;;-146.27;48.52;79388.16;5032875;28;20048;-73
2023/06/10 08:31:26;;;;;;;9.80;5.25;;;;;;;-146.27;45.81;79350.03;5029506;28;20128;-72
2023/06/10 08:33:51;;;;;;;7.72;4.65;;;;;;;-146.27;47.84;79404.22;5031329;28;20024;-71
2023/06/10 08:36:17;;;;;;;8.93;5.13;;;;;;;-146.27;47.40;79283.78;5018399;28;20032;-72
2023/06/10 08:38:42;;;;;;;8.93;5.07;;;;;;;-146.27;46.83;79223.56;5030629;28;20544;-72
2023/06/10 08:41:09;;;;;;;10.88;5.15;;;;;;;-146.27;46.74;79147.31;5035267;28;20029;-72
2023/06/10 08:44:24;;;;;;;9.77;5.10;;;;;;;-146.27;45.46;79135.25;5042507;28;20033;-72
2023/06/10 08:46:51;;;;;;;8.63;5.00;;;;;;;-146.27;46.37;79058.97;5029018;28;20544;-72
2023/06/10 08:49:23;;;;;;;8.05;4.75;;;;;;;-146.27;45.17;79048.94;5029813;28;20371;-72
2023/06/10 08:51:59;;;;;;;10.18;4.82;;;;;;;-146.27;45.02;79018.84;5036837;28;20041;-72
2023/06/10 08:54:28;;;;;;;13.60;4.88;;;;;;;-146.27;46.55;78970.69;5038353;28;20122;-72
2023/06/10 08:56:57;;;;;;;11.32;4.60;;;;;;;-146.27;45.45;78906.44;5037753;28;20076;-72
2023/06/10 08:59:24;;;;;;;9.38;5.22;;;;;;;-146.27;44.26;78872.31;5034808;28;20032;-72
2023/06/10 09:01:51;;;;;;;9.30;4.95;;;;;;;-146.27;44.87;78771.97;5047308;28;20052;-72
2023/06/10 09:04:17;;;;;;;7.40;5.07;;;;;;;-146.27;44.54;78782.00;5031033;28;20111;-72
2023/06/10 09:06:44;;;;;;;10.05;4.70;;;;;;;-146.27;44.82;78733.84;5028059;28;20033;-71
2023/06/10 09:09:10;;;;;;;8.32;4.72;;;;;;;-146.27;44.06;78727.81;5045033;28;20044;-72
2023/06/10 09:11:38;;;;;;;7.05;4.90;;;;;;;-146.27;44.40;78681.66;5031157;28;20392;-72
2023/06/10 09:14:03;;;;;;;6.05;4.40;;;;;;;-146.27;43.31;78607.41;5034884;28;20059;-70
2023/06/10 09:16:28;;;;;;;9.32;4.60;;;;;;;-146.27;41.42;78613.44;5037894;28;20132;-72
2023/06/10 09:18:55;;;;;;;15.20;4.65;;;;;;;-146.27;42.34;78515.09;5036305;28;20421;-72
2023/06/10 09:21:22;;;;;;;15.30;4.78;;;;;;;-146.27;41.83;78484.97;5025255;28;20071;-73
2023/06/10 09:23:48;;;;;;;6.78;5.10;;;;;;;-146.27;42.00;78410.72;5023138;28;20029;-73
2023/06/10 09:26:13;;;;;;;7.88;4.57;;;;;;;-146.27;41.44;78392.66;5033793;28;20469;-73
2023/06/10 09:28:40;;;;;;;8.00;5.15;;;;;;;-146.27;41.22;78274.28;5039189;28;20026;-73
2023/06/10 09:31:07;;;;;;;5.93;4.07;;;;;;;-146.27;41.33;78208.06;5035028;28;20397;-72
2023/06/10 09:33:33;;;;;;;7.75;4.93;;;;;;;-146.27;40.51;78179.97;5030920;28;20475;-72
2023/06/10 09:36:02;;;;;;;9.05;4.25;;;;;;;-146.27;40.75;78109.72;5035230;28;20032;-73
2023/06/10 09:38:31;;;;;;;13.43;5.07;;;;;;;-146.27;39.39;78077.63;5032729;28;20432;-72
2023/06/10 09:40:57;;;;;;;8.60;4.50;;;;;;;-146.27;40.10;78033.47;5034720;28;20386;-71
2023/06/10 09:43:22;;;;;;;9.82;4.50;;;;;;;-146.27;39.20;78015.41;5029114;28;20032;-72
2023/06/10 09:45:49;;;;;;;7.15;4.47;;;;;;;-146.27;39.48;77919.09;5043974;28;20037;-72
2023/06/10 09:48:14;;;;;;;6.70;4.60;;;;;;;-146.27;39.76;77862.91;5030542;28;20083;-72
2023/06/10 09:50:44;;;;;;;6.93;4.40;;;;;;;-146.27;38.71;77822.78;5035225;28;20037;-72
2023/06/10 09:53:10;;;;;;;6.75;4.68;;;;;;;-146.27;39.19;77770.59;5032435;28;20029;-71
2023/06/10 09:55:40;;;;;;;7.15;4.20;;;;;;;-146.27;39.30;77746.53;5019342;28;20398;-71
2023/06/10 09:58:06;;;;;;;13.40;4.32;;;;;;;-146.27;39.00;77698.38;5045990;28;20380;-72
2023/06/10 10:00:35;;;;;;;8.07;4.38;;;;;;;-146.27;39.04;77632.16;5038468;28;20092;-72
2023/06/10 10:03:01;;;;;;;8.02;4.43;;;;;;;-146.27;38.76;77626.16;5027032;28;20658;-71
2023/06/10 10:05:27;;;;;;;7.45;4.75;;;;;;;-146.27;38.39;77521.81;5029376;28;20036;-71
2023/06/10 10:07:53;;;;;;;6.70;4.90;;;;;;;-146.27;38.82;77507.78;5046297;28;20025;-71
2023/06/10 10:10:21;;;;;;;7.93;4.70;;;;;;;-146.27;38.27;77501.75;5031689;28;20041;-72
2023/06/10 10:12:47;;;;;;;10.05;4.50;;;;;;;-146.27;38.62;77445.56;5024199;28;20393;-72
2023/06/10 10:15:15;;;;;;;5.95;4.50;;;;;;;-146.27;38.72;77313.16;5031779;28;20025;-72
2023/06/10 10:18:22;;;;;;;7.43;4.63;;;;;;;-146.27;39.17;77289.06;5031992;28;20040;-72
2023/06/10 10:20:52;;;;;;;7.38;4.70;;;;;;;-146.27;39.00;77228.91;5030137;28;20033;-73
2023/06/10 10:23:31;;;;;;;7.75;4.55;;;;;;;-146.27;39.28;77136.59;5020434;28;20149;-71
2023/06/10 10:26:00;;;;;;;6.32;4.63;;;;;;;-146.27;37.73;77062.38;5026846;28;20021;-72
2023/06/10 10:28:34;;;;;;;6.32;4.55;;;;;;;-146.27;37.97;76968.09;5032035;28;20461;-72
2023/06/10 10:31:05;;;;;;;8.00;5.28;;;;;;;-146.27;38.11;76938.00;5024255;28;21287;-72
2023/06/10 10:33:40;;;;;;;8.73;4.70;;;;;;;-146.27;37.45;76889.84;5022889;28;20048;-72
2023/06/10 10:36:07;;;;;;;12.32;4.72;;;;;;;-146.27;37.89;76845.72;5022685;28;20051;-72
2023/06/10 10:38:33;;;;;;;8.20;4.95;;;;;;;-146.27;36.95;76801.59;5034264;28;20037;-72
2023/06/10 10:41:00;;;;;;;8.93;5.32;;;;;;;-146.27;37.14;76783.53;5043300;28;20104;-72
2023/06/10 10:43:28;;;;;;;6.78;4.50;;;;;;;-146.27;36.95;76733.38;5049036;28;20029;-72
2023/06/10 10:46:00;;;;;;;7.80;4.65;;;;;;;-146.27;36.71;76659.16;5023011;28;20093;-71
2023/06/10 10:48:29;;;;;;;8.93;4.72;;;;;;;-146.27;36.19;76488.66;5032187;28;20398;-72
2023/06/10 10:50:58;;;;;;;6.78;4.18;;;;;;;-146.27;35.34;76424.47;5030223;28;20029;-72
2023/06/10 10:53:23;;;;;;;6.63;4.63;;;;;;;-146.27;35.29;76296.09;5031425;28;20056;-72
2023/06/10 10:56:15;;;;;;;7.38;5.25;;;;;;;-146.27;35.80;76227.91;5032777;28;20067;-72
2023/06/10 10:58:41;;;;;;;8.77;4.60;;;;;;;-146.27;35.93;76195.81;5030037;28;20396;-72
2023/06/10 11:01:11;;;;;;;9.23;5.07;;;;;;;-146.27;35.42;76125.63;5027797;28;20036;-75
2023/06/10 11:03:46;;;;;;;7.53;4.50;;;;;;;-146.27;34.77;76069.47;5029824;28;20021;-72
2023/06/10 11:06:16;;;;;;;7.38;4.70;;;;;;;-146.27;33.75;76093.53;5032328;28;20021;-72
2023/06/10 11:08:42;;;;;;;7.57;4.38;;;;;;;-146.27;34.76;76053.41;5042876;28;20045;-73
2023/06/10 11:11:26;;;;;;;7.57;4.60;;;;;;;-146.27;35.53;75973.19;5036357;28;20026;-72
2023/06/10 11:14:09;;;;;;;8.95;4.55;;;;;;;-146.27;34.94;75860.88;5034477;28;20029;-72